Time;durP1;ratioP1;P1;durP2;ratioP2;P2;SDS_P1;SDS_P2;PMS_P1;PMS_P2;Temp;Humidity;BMP_temperature;BMP_pressure;BME280_temperature;BME280_humidity;BME280_pressure;Samples;Min_cycle;Max_cycle;Signal;HPM_P1;HPM_P2
2022/04/27 00:00:41;;;;;;;16.50;14.90;;;8.60;99.90;;;;;;6003424;23;20281;-80
2022/04/27 00:03:07;;;;;;;17.02;15.38;;;8.60;99.90;;;;;;6005545;23;20193;-79
2022/04/27 00:05:34;;;;;;;18.58;16.77;;;8.60;99.90;;;;;;6003519;23;20201;-79
2022/04/27 00:08:01;;;;;;;17.15;15.35;;;8.50;99.90;;;;;;6003627;23;20218;-80
2022/04/27 00:10:28;;;;;;;17.23;15.50;;;8.50;99.90;;;;;;6003213;23;20230;-79
2022/04/27 00:12:57;;;;;;;19.23;17.25;;;8.50;99.90;;;;;;6004694;23;20269;-79
2022/04/27 00:15:26;;;;;;;18.58;16.80;;;8.50;99.90;;;;;;6002369;23;20199;-79
2022/04/27 00:17:53;;;;;;;19.17;17.27;;;8.50;99.90;;;;;;6001723;23;20267;-79
2022/04/27 00:20:20;;;;;;;19.98;17.95;;;8.40;99.90;;;;;;6003509;23;20218;-80
2022/04/27 00:22:47;;;;;;;21.13;18.80;;;8.40;99.90;;;;;;6004012;23;20194;-80
2022/04/27 00:25:14;;;;;;;21.60;19.30;;;8.40;99.90;;;;;;6003680;23;20197;-79
2022/04/27 00:27:41;;;;;;;21.30;19.10;;;8.40;99.90;;;;;;6002122;23;20234;-79
2022/04/27 00:30:11;;;;;;;22.73;19.63;;;8.40;99.90;;;;;;6000704;23;20254;-79
2022/04/27 00:32:38;;;;;;;22.27;19.83;;;8.50;99.90;;;;;;6004270;23;20194;-79
2022/04/27 00:35:08;;;;;;;22.60;19.95;;;8.50;99.90;;;;;;6005461;23;20213;-80
2022/04/27 00:37:35;;;;;;;22.65;20.15;;;8.60;99.90;;;;;;6003351;23;20199;-79
2022/04/27 00:40:02;;;;;;;23.00;20.55;;;8.60;99.90;;;;;;5999554;23;20239;-79
2022/04/27 00:42:29;;;;;;;23.83;21.33;;;8.60;99.90;;;;;;6001405;23;20201;-79
2022/04/27 00:44:56;;;;;;;24.40;21.52;;;8.60;99.90;;;;;;6003410;23;20277;-80
2022/04/27 00:47:24;;;;;;;24.45;21.88;;;8.60;99.90;;;;;;6002204;23;20249;-80
2022/04/27 00:49:53;;;;;;;23.85;21.25;;;8.70;99.90;;;;;;6003958;23;20227;-80
2022/04/27 00:52:22;;;;;;;24.23;21.45;;;8.80;99.90;;;;;;6003502;23;20197;-80
2022/04/27 00:54:52;;;;;;;25.20;22.50;;;8.90;99.90;;;;;;6002134;23;20195;-80
2022/04/27 00:57:20;;;;;;;26.08;23.27;;;8.90;99.90;;;;;;6001064;23;20309;-80
2022/04/27 00:59:47;;;;;;;24.38;21.25;;;9.00;99.90;;;;;;6004402;23;20192;-80
2022/04/27 01:02:15;;;;;;;26.13;23.40;;;9.10;99.90;;;;;;6003022;23;20196;-80
2022/04/27 01:04:43;;;;;;;25.10;21.98;;;9.10;99.90;;;;;;6003829;23;20232;-79
2022/04/27 01:07:11;;;;;;;27.33;23.52;;;9.10;99.90;;;;;;6005293;23;20273;-80
2022/04/27 01:09:38;;;;;;;24.05;21.48;;;9.10;99.90;;;;;;5980689;23;20202;-80
2022/04/27 01:12:06;;;;;;;25.13;22.52;;;9.10;99.90;;;;;;6003586;23;20274;-80
2022/04/27 01:14:42;;;;;;;27.80;24.80;;;9.10;99.90;;;;;;6001831;23;20547;-82
2022/04/27 01:17:09;;;;;;;30.27;27.02;;;9.10;99.90;;;;;;6005254;23;20199;-80
2022/04/27 01:19:36;;;;;;;25.98;23.08;;;9.10;99.90;;;;;;6003171;23;20614;-79
2022/04/27 01:22:05;;;;;;;25.25;22.52;;;9.20;99.90;;;;;;5982270;23;20193;-80
2022/04/27 01:24:32;;;;;;;25.48;22.58;;;9.20;99.90;;;;;;5994087;23;20205;-80
2022/04/27 01:27:00;;;;;;;26.73;23.92;;;9.20;99.90;;;;;;5993527;23;20287;-80
2022/04/27 01:29:27;;;;;;;25.38;22.77;;;9.20;99.90;;;;;;6002304;23;20754;-80
2022/04/27 01:31:54;;;;;;;26.15;23.45;;;9.20;99.90;;;;;;5994445;23;20283;-80
2022/04/27 01:34:22;;;;;;;25.42;22.80;;;9.20;99.90;;;;;;5996012;23;20233;-80
2022/04/27 01:36:50;;;;;;;25.15;22.50;;;9.20;99.90;;;;;;5987356;23;20275;-81
2022/04/27 01:39:18;;;;;;;25.92;23.13;;;9.20;99.90;;;;;;6001297;23;20223;-80
2022/04/27 01:41:45;;;;;;;28.58;25.67;;;9.30;99.90;;;;;;6004751;23;20553;-80
2022/04/27 01:44:12;;;;;;;27.27;24.33;;;9.30;99.90;;;;;;6003091;23;20200;-81
2022/04/27 01:46:40;;;;;;;24.90;22.45;;;9.30;99.90;;;;;;6000323;23;20298;-80
2022/04/27 01:49:07;;;;;;;25.23;22.63;;;9.30;99.90;;;;;;6004327;23;20225;-80
2022/04/27 01:54:20;;;;;;;24.33;21.77;;;9.30;99.90;;;;;;6004410;23;20720;-80
2022/04/27 01:56:48;;;;;;;23.98;21.67;;;9.40;99.90;;;;;;6002629;23;20205;-80
2022/04/27 01:59:15;;;;;;;26.67;23.13;;;9.30;99.90;;;;;;5987838;23;20273;-80
2022/04/27 02:01:43;;;;;;;27.92;25.00;;;9.30;99.90;;;;;;6003960;23;20214;-80
2022/04/27 02:04:11;;;;;;;28.23;25.35;;;9.30;99.90;;;;;;6004220;23;20284;-81
2022/04/27 02:06:38;;;;;;;26.02;23.33;;;9.40;99.90;;;;;;5998055;23;20222;-81
2022/04/27 02:09:05;;;;;;;25.30;22.70;;;9.40;99.90;;;;;;6004984;23;20196;-80
2022/04/27 02:11:34;;;;;;;26.27;23.58;;;9.40;99.90;;;;;;6001473;23;20242;-80
2022/04/27 02:14:01;;;;;;;25.98;22.80;;;9.40;99.90;;;;;;5978727;23;20349;-80
2022/04/27 02:16:29;;;;;;;24.63;22.13;;;9.40;99.90;;;;;;5999901;23;20279;-80
2022/04/27 02:18:57;;;;;;;29.63;23.85;;;9.40;99.90;;;;;;6001501;23;20211;-80
2022/04/27 02:21:25;;;;;;;25.30;21.60;;;9.50;99.90;;;;;;6002298;23;20290;-80
2022/04/27 02:23:52;;;;;;;24.17;21.67;;;9.40;99.90;;;;;;6003309;23;20204;-80
2022/04/27 02:26:20;;;;;;;23.30;20.90;;;9.40;99.90;;;;;;5998151;23;20196;-80
2022/04/27 02:28:48;;;;;;;24.05;21.65;;;9.40;99.90;;;;;;6004114;23;20228;-80
2022/04/27 02:31:15;;;;;;;23.10;20.80;;;9.40;99.90;;;;;;6002817;23;20218;-79
2022/04/27 02:33:42;;;;;;;24.05;21.55;;;9.40;99.90;;;;;;6002578;23;20234;-79
2022/04/27 02:36:09;;;;;;;22.27;20.00;;;9.40;99.90;;;;;;6000350;23;20640;-79
2022/04/27 02:38:36;;;;;;;23.52;21.02;;;9.40;99.90;;;;;;6003750;23;20610;-79
2022/04/27 02:41:03;;;;;;;23.88;21.52;;;9.40;99.90;;;;;;6003035;23;20629;-79
2022/04/27 02:43:31;;;;;;;24.80;21.77;;;9.40;99.90;;;;;;5999347;23;20244;-79
2022/04/27 02:46:00;;;;;;;27.00;23.02;;;9.30;99.90;;;;;;5997904;23;20885;-81
2022/04/27 02:48:27;;;;;;;24.55;21.95;;;9.30;99.90;;;;;;6002637;23;20219;-79
2022/04/27 02:53:38;;;;;;;22.52;20.23;;;9.30;99.90;;;;;;6002400;23;20545;-79
2022/04/27 02:56:06;;;;;;;24.33;21.77;;;9.30;99.90;;;;;;5997274;23;20202;-79
2022/04/27 02:58:33;;;;;;;22.85;20.02;;;9.30;99.90;;;;;;5996364;23;20200;-79
2022/04/27 03:01:01;;;;;;;20.58;18.50;;;9.40;99.90;;;;;;6002999;23;20214;-79
2022/04/27 03:03:28;;;;;;;19.73;17.73;;;9.40;99.90;;;;;;6003229;23;20315;-79
2022/04/27 03:05:55;;;;;;;19.17;17.30;;;9.40;99.90;;;;;;6000323;23;20227;-81
2022/04/27 03:08:22;;;;;;;20.17;18.17;;;9.50;99.90;;;;;;5993695;23;20306;-79
2022/04/27 03:10:49;;;;;;;20.00;18.08;;;9.50;99.90;;;;;;5996461;23;20211;-80
2022/04/27 03:13:15;;;;;;;18.67;16.98;;;9.50;99.90;;;;;;5993233;23;20903;-79
2022/04/27 03:15:42;;;;;;;19.00;17.08;;;9.60;99.90;;;;;;6002135;23;20718;-80
2022/04/27 03:18:23;;;;;;;17.17;15.40;;;9.60;99.90;;;;;;6002724;23;20645;-79
2022/04/27 03:20:50;;;;;;;19.33;17.33;;;9.70;99.90;;;;;;5996257;23;20216;-79
2022/04/27 03:23:18;;;;;;;17.15;15.50;;;9.70;99.90;;;;;;6003611;23;20196;-79
2022/04/27 03:25:45;;;;;;;16.70;15.15;;;9.80;99.90;;;;;;6002202;23;20611;-79
2022/04/27 03:28:13;;;;;;;17.38;15.68;;;9.90;99.90;;;;;;5987132;23;20299;-79
2022/04/27 03:30:40;;;;;;;16.92;15.32;;;9.90;99.90;;;;;;6000824;23;20286;-79
2022/04/27 03:33:07;;;;;;;16.10;14.60;;;9.90;99.90;;;;;;6004432;23;20200;-79
2022/04/27 03:35:36;;;;;;;15.07;13.68;;;9.90;99.90;;;;;;6002006;23;20587;-80
2022/04/27 03:38:03;;;;;;;14.88;13.57;;;9.90;99.90;;;;;;6003972;23;20593;-79
2022/04/27 03:40:30;;;;;;;14.98;13.55;;;9.90;99.90;;;;;;6002296;23;20273;-79
2022/04/27 03:42:57;;;;;;;15.88;14.45;;;9.90;99.90;;;;;;5989173;23;20195;-79
2022/04/27 03:45:25;;;;;;;13.88;12.52;;;10.00;99.90;;;;;;5998170;23;20192;-79
2022/04/27 03:47:52;;;;;;;14.55;13.23;;;10.00;99.90;;;;;;5999616;23;20212;-79
2022/04/27 03:50:20;;;;;;;15.20;13.80;;;10.00;99.90;;;;;;6002708;23;20254;-80
2022/04/27 03:52:48;;;;;;;17.20;15.57;;;9.90;99.90;;;;;;6003068;23;20192;-80
2022/04/27 03:55:15;;;;;;;14.85;13.55;;;9.90;99.90;;;;;;6003022;23;20775;-79
2022/04/27 03:57:42;;;;;;;14.93;13.63;;;9.90;99.90;;;;;;5994569;23;20669;-79
2022/04/27 04:00:11;;;;;;;14.60;13.30;;;9.90;99.90;;;;;;5997643;23;20293;-79
2022/04/27 04:02:38;;;;;;;13.88;12.57;;;10.00;99.90;;;;;;6000681;23;20220;-79
2022/04/27 04:05:06;;;;;;;14.27;13.00;;;9.80;99.90;;;;;;5988605;23;20190;-80
2022/04/27 04:07:33;;;;;;;13.93;12.63;;;9.90;99.90;;;;;;5999492;23;20296;-80
2022/04/27 04:10:02;;;;;;;14.38;12.98;;;9.90;99.90;;;;;;6000397;23;20205;-79
2022/04/27 04:12:29;;;;;;;14.07;12.70;;;10.00;99.90;;;;;;5991202;23;20194;-80
2022/04/27 04:14:56;;;;;;;14.88;13.45;;;10.00;99.90;;;;;;5980050;23;20228;-82
2022/04/27 04:17:23;;;;;;;14.95;13.65;;;10.10;99.90;;;;;;5990407;23;20281;-80
2022/04/27 04:19:50;;;;;;;14.48;13.05;;;10.10;99.90;;;;;;6000913;23;20271;-81
2022/04/27 04:22:17;;;;;;;15.57;14.10;;;10.10;99.90;;;;;;5990264;23;20322;-81
2022/04/27 04:28:29;;;;;;;15.70;14.30;;;10.20;99.90;;;;;;6003108;23;20193;-79
2022/04/27 04:30:17;;;;;;;15.73;14.25;;;10.20;99.90;;;;;;6004816;23;20262;-80
2022/04/27 04:32:45;;;;;;;14.23;12.93;;;10.20;99.90;;;;;;6002951;23;20278;-80
2022/04/27 04:35:12;;;;;;;15.50;14.00;;;10.20;99.90;;;;;;6004963;23;20230;-81
2022/04/27 04:37:38;;;;;;;15.32;14.02;;;10.20;99.90;;;;;;6000240;23;20202;-80
2022/04/27 04:40:07;;;;;;;14.48;13.18;;;10.20;99.90;;;;;;5995363;23;20209;-82
2022/04/27 04:42:35;;;;;;;19.67;17.73;;;10.30;99.90;;;;;;6000123;23;20193;-81
2022/04/27 04:45:03;;;;;;;17.95;16.25;;;10.30;99.90;;;;;;5999334;23;20191;-82
2022/04/27 04:47:31;;;;;;;17.92;16.23;;;10.20;99.90;;;;;;5991271;23;21753;-80
2022/04/27 04:49:58;;;;;;;16.25;14.75;;;10.20;99.90;;;;;;6001963;23;20238;-80
2022/04/27 04:52:25;;;;;;;16.42;14.85;;;10.20;99.90;;;;;;5992234;23;20652;-81
2022/04/27 04:54:52;;;;;;;17.27;15.60;;;10.10;99.90;;;;;;5998824;23;20244;-80
2022/04/27 04:57:19;;;;;;;18.23;16.42;;;10.10;99.90;;;;;;6002924;23;20272;-80
2022/04/27 04:59:47;;;;;;;18.40;16.60;;;10.10;99.90;;;;;;5989322;23;20205;-80
2022/04/27 05:02:14;;;;;;;22.73;20.55;;;10.20;99.90;;;;;;5992795;23;20185;-80
2022/04/27 05:04:41;;;;;;;22.25;20.13;;;10.20;99.90;;;;;;5992323;23;20185;-79
2022/04/27 05:07:08;;;;;;;19.90;17.98;;;10.20;99.90;;;;;;5997955;23;20248;-79
2022/04/27 05:09:35;;;;;;;20.33;18.33;;;10.20;99.90;;;;;;5995576;23;20302;-80
2022/04/27 05:12:02;;;;;;;20.85;18.65;;;10.20;99.90;;;;;;6003344;23;20272;-79
2022/04/27 05:14:29;;;;;;;19.92;17.98;;;10.20;99.90;;;;;;6000535;23;20595;-80
2022/04/27 05:16:57;;;;;;;18.27;16.45;;;10.10;99.90;;;;;;5999894;23;20192;-80
2022/04/27 05:19:25;;;;;;;19.13;17.20;;;10.20;99.90;;;;;;6001873;23;20215;-80
2022/04/27 05:21:51;;;;;;;16.30;14.75;;;10.10;99.90;;;;;;5993667;23;21910;-79
2022/04/27 05:24:18;;;;;;;17.65;15.70;;;10.20;99.90;;;;;;5998592;23;20196;-79
2022/04/27 05:26:45;;;;;;;16.60;15.00;;;10.20;99.90;;;;;;5992945;23;20265;-80
2022/04/27 05:31:59;;;;;;;13.35;12.10;;;10.20;99.90;;;;;;5989521;23;20201;-78
2022/04/27 05:34:30;;;;;;;13.63;12.32;;;10.20;99.90;;;;;;5990890;23;20191;-78
2022/04/27 05:36:57;;;;;;;14.27;12.98;;;10.20;99.90;;;;;;5998663;23;20605;-78
2022/04/27 05:39:24;;;;;;;14.25;12.95;;;10.10;99.90;;;;;;5984799;23;20292;-79
2022/04/27 05:41:52;;;;;;;13.35;12.15;;;10.20;99.90;;;;;;5995834;23;20197;-79
2022/04/27 05:44:22;;;;;;;13.73;12.52;;;10.20;99.90;;;;;;5988185;23;20189;-79
2022/04/27 05:46:48;;;;;;;17.48;15.77;;;10.30;99.90;;;;;;5996741;23;20187;-78
2022/04/27 05:49:17;;;;;;;18.95;17.05;;;10.30;99.90;;;;;;5995025;23;20701;-81
2022/04/27 05:51:44;;;;;;;16.23;14.80;;;10.30;99.90;;;;;;6000203;23;20199;-81
2022/04/27 05:54:13;;;;;;;16.60;15.20;;;10.40;99.90;;;;;;6001251;23;20181;-81
2022/04/27 05:56:41;;;;;;;15.27;13.98;;;10.40;99.90;;;;;;5989714;23;20593;-81
2022/04/27 05:59:08;;;;;;;14.55;13.25;;;10.40;99.90;;;;;;5995358;23;20244;-80
2022/04/27 06:01:35;;;;;;;14.55;13.25;;;10.50;99.90;;;;;;5996107;23;20188;-80
2022/04/27 06:04:02;;;;;;;13.32;12.23;;;10.60;99.90;;;;;;6001504;23;20272;-80
2022/04/27 06:06:31;;;;;;;11.90;10.90;;;10.70;99.90;;;;;;6003076;23;20190;-80
2022/04/27 06:08:58;;;;;;;11.32;10.40;;;10.70;99.90;;;;;;5991334;23;20263;-81
2022/04/27 06:11:25;;;;;;;12.02;11.02;;;10.80;99.90;;;;;;5993189;23;20250;-80
2022/04/27 06:13:52;;;;;;;13.20;12.10;;;10.90;99.90;;;;;;5998748;23;20661;-82
2022/04/27 06:16:19;;;;;;;12.50;11.50;;;10.90;99.90;;;;;;6002268;23;20202;-81
2022/04/27 06:18:46;;;;;;;12.05;11.05;;;10.90;99.90;;;;;;5992630;23;20189;-81
2022/04/27 06:21:13;;;;;;;11.95;10.82;;;10.90;99.90;;;;;;5996838;23;20684;-81
2022/04/27 06:23:41;;;;;;;11.60;10.60;;;11.00;99.90;;;;;;5990890;23;20194;-80
2022/04/27 06:26:08;;;;;;;11.27;10.32;;;10.90;99.90;;;;;;5989574;23;20306;-81
2022/04/27 06:28:35;;;;;;;11.95;10.95;;;10.80;99.90;;;;;;5987249;23;20623;-81
2022/04/27 06:31:03;;;;;;;13.10;12.00;;;10.80;99.90;;;;;;6000054;23;20720;-81
2022/04/27 06:33:30;;;;;;;12.88;11.68;;;10.80;99.90;;;;;;5996227;23;20245;-81
2022/04/27 06:35:57;;;;;;;11.25;10.30;;;10.80;99.90;;;;;;5994538;23;20726;-80
2022/04/27 06:38:24;;;;;;;11.95;10.95;;;10.80;99.90;;;;;;5983482;23;20194;-81
2022/04/27 06:40:52;;;;;;;12.15;11.15;;;10.90;99.90;;;;;;5978830;23;20210;-81
2022/04/27 06:43:19;;;;;;;11.50;10.60;;;10.90;99.90;;;;;;5980309;23;20188;-81
2022/04/27 06:45:46;;;;;;;12.02;10.93;;;11.00;99.90;;;;;;5986339;23;20196;-82
2022/04/27 06:48:13;;;;;;;12.68;11.57;;;11.10;99.90;;;;;;5982750;23;20218;-82
2022/04/27 06:50:40;;;;;;;12.10;11.02;;;11.20;99.90;;;;;;5984978;23;20208;-82
2022/04/27 06:53:09;;;;;;;12.57;11.57;;;11.20;99.90;;;;;;6001198;23;20186;-82
2022/04/27 06:55:36;;;;;;;11.32;10.43;;;11.30;99.90;;;;;;5996498;23;20236;-81
2022/04/27 06:58:05;;;;;;;13.40;12.30;;;11.20;99.90;;;;;;6001837;23;20205;-83
2022/04/27 07:00:32;;;;;;;11.88;10.77;;;11.20;99.90;;;;;;5998084;23;20284;-81
2022/04/27 07:02:59;;;;;;;12.00;10.90;;;11.40;99.90;;;;;;5999775;23;20582;-80
2022/04/27 07:05:27;;;;;;;11.93;10.98;;;11.50;99.90;;;;;;5998575;23;20281;-80
2022/04/27 07:07:54;;;;;;;11.07;10.18;;;11.60;99.90;;;;;;5996690;23;20201;-81
2022/04/27 07:10:21;;;;;;;12.40;11.30;;;11.70;99.90;;;;;;5997456;23;20209;-80
2022/04/27 07:12:48;;;;;;;10.52;9.68;;;11.70;99.90;;;;;;6001881;23;20557;-81
2022/04/27 07:15:17;;;;;;;10.23;9.32;;;11.80;99.90;;;;;;5997029;23;20202;-81
2022/04/27 07:17:44;;;;;;;9.93;9.02;;;12.10;99.90;;;;;;6000414;23;20190;-81
2022/04/27 07:20:12;;;;;;;9.82;8.93;;;12.30;99.90;;;;;;5996147;23;20210;-81
2022/04/27 07:22:39;;;;;;;9.90;9.10;;;12.50;99.90;;;;;;5999433;23;20190;-81
2022/04/27 07:25:06;;;;;;;9.73;8.82;;;12.80;99.90;;;;;;5985604;23;20210;-81
2022/04/27 07:27:33;;;;;;;9.20;8.50;;;12.80;99.90;;;;;;5989455;23;20190;-81
2022/04/27 07:30:00;;;;;;;7.80;7.20;;;13.00;99.90;;;;;;5993621;23;20305;-81
2022/04/27 07:32:28;;;;;;;7.82;7.22;;;13.40;99.90;;;;;;5998521;23;20262;-81
2022/04/27 07:34:55;;;;;;;7.95;7.35;;;13.70;99.90;;;;;;5998274;23;20589;-82
2022/04/27 07:37:22;;;;;;;8.60;7.80;;;14.10;99.90;;;;;;5993410;23;20214;-81
2022/04/27 07:39:49;;;;;;;7.38;6.78;;;14.30;99.90;;;;;;5997996;23;20245;-81
2022/04/27 07:42:16;;;;;;;8.95;8.25;;;14.40;99.90;;;;;;5990337;23;20265;-82
2022/04/27 07:44:43;;;;;;;8.32;7.72;;;14.50;99.90;;;;;;5998377;23;20231;-81
2022/04/27 07:47:13;;;;;;;7.80;7.17;;;14.80;99.90;;;;;;5999768;23;20192;-82
2022/04/27 07:49:41;;;;;;;7.63;7.07;;;15.30;99.90;;;;;;5987770;23;20480;-82
2022/04/27 07:52:08;;;;;;;6.43;5.93;;;15.60;99.90;;;;;;5997846;23;20466;-82
2022/04/27 07:54:35;;;;;;;7.20;6.57;;;15.90;99.90;;;;;;5993012;23;20513;-81
2022/04/27 07:57:03;;;;;;;6.80;6.30;;;16.20;99.90;;;;;;5989586;23;20886;-82
2022/04/27 07:59:30;;;;;;;6.70;6.10;;;16.10;99.90;;;;;;5998179;23;20478;-81
2022/04/27 08:01:57;;;;;;;6.67;6.17;;;16.30;99.90;;;;;;6000779;23;20516;-82
2022/04/27 08:04:25;;;;;;;7.03;6.33;;;16.40;99.90;;;;;;5998132;23;20473;-82
2022/04/27 08:06:53;;;;;;;6.23;5.83;;;16.60;99.90;;;;;;6000571;23;20464;-82
2022/04/27 08:09:20;;;;;;;6.73;6.17;;;16.70;99.90;;;;;;5983041;23;20548;-81
2022/04/27 08:11:47;;;;;;;6.00;5.50;;;16.30;99.90;;;;;;5998197;23;20758;-81
2022/04/27 08:14:14;;;;;;;5.87;5.23;;;16.20;99.90;;;;;;5999150;23;20534;-82
2022/04/27 08:16:41;;;;;;;5.97;5.47;;;16.10;99.90;;;;;;6001702;23;20512;-82
2022/04/27 08:19:08;;;;;;;5.77;5.37;;;16.20;99.90;;;;;;6002688;23;20496;-82
2022/04/27 08:21:35;;;;;;;6.33;5.87;;;16.20;99.90;;;;;;5997725;23;20457;-84
2022/04/27 08:24:08;;;;;;;6.50;6.00;;;15.70;99.90;;;;;;6000551;23;20443;-82
2022/04/27 08:26:35;;;;;;;5.87;5.47;;;14.90;99.90;;;;;;6002347;23;20520;-81
2022/04/27 08:29:03;;;;;;;5.10;4.70;;;14.20;99.90;;;;;;5994192;23;20970;-82
2022/04/27 08:31:30;;;;;;;5.65;5.22;;;14.10;99.90;;;;;;5996454;23;20545;-81
2022/04/27 08:33:57;;;;;;;5.30;4.90;;;14.10;99.90;;;;;;5999012;23;20853;-82
2022/04/27 08:36:24;;;;;;;5.80;5.30;;;13.80;99.90;;;;;;6003067;23;20192;-82
2022/04/27 08:38:51;;;;;;;5.53;5.13;;;13.90;99.90;;;;;;6000163;23;20744;-82
2022/04/27 08:41:20;;;;;;;5.87;5.43;;;14.10;99.90;;;;;;6001713;23;20183;-83
2022/04/27 08:43:47;;;;;;;6.30;5.80;;;14.40;99.90;;;;;;6000811;23;20476;-83
2022/04/27 08:46:15;;;;;;;5.13;4.73;;;14.80;99.90;;;;;;6004076;23;20495;-83
2022/04/27 08:48:46;;;;;;;5.23;4.83;;;14.90;99.90;;;;;;6001036;23;20439;-83
2022/04/27 08:51:13;;;;;;;6.67;6.07;;;15.20;99.90;;;;;;5999016;23;20519;-83
2022/04/27 08:53:42;;;;;;;6.33;5.83;;;15.30;99.90;;;;;;5999625;23;20451;-82
2022/04/27 08:56:09;;;;;;;6.23;5.20;;;15.10;99.90;;;;;;6004086;23;20527;-83
2022/04/27 08:58:37;;;;;;;5.10;4.70;;;15.20;99.90;;;;;;6001965;23;20968;-83
2022/04/27 09:01:04;;;;;;;5.40;4.90;;;15.30;99.90;;;;;;5998489;23;20473;-83
2022/04/27 09:03:33;;;;;;;5.03;4.63;;;15.40;99.90;;;;;;6003973;23;20436;-83
2022/04/27 09:06:01;;;;;;;5.03;4.63;;;15.70;99.90;;;;;;6000560;23;20569;-83
2022/04/27 09:08:38;;;;;;;4.90;4.60;;;15.90;99.90;;;;;;6003410;23;20879;-83
2022/04/27 09:11:16;;;;;;;5.00;4.63;;;16.10;99.90;;;;;;6002497;23;20958;-83
2022/04/27 09:13:49;;;;;;;5.00;4.70;;;16.20;99.90;;;;;;5980405;23;20474;-83
2022/04/27 09:16:18;;;;;;;5.17;4.77;;;16.40;99.90;;;;;;5999735;23;20437;-84
2022/04/27 09:21:59;;;;;;;5.23;4.83;;;16.70;99.90;;;;;;5997487;23;21311;-81
2022/04/27 09:24:27;;;;;;;5.40;5.00;;;16.90;99.90;;;;;;6002322;23;20523;-82
2022/04/27 09:27:03;;;;;;;5.80;5.40;;;16.80;99.90;;;;;;5993544;23;20443;-81
2022/04/27 09:29:32;;;;;;;5.13;4.73;;;16.70;99.90;;;;;;5989467;23;20575;-81
2022/04/27 09:32:00;;;;;;;5.00;4.70;;;16.80;99.90;;;;;;5994908;23;20483;-82
2022/04/27 09:34:31;;;;;;;6.40;5.90;;;16.90;99.90;;;;;;5997022;23;20734;-82
2022/04/27 09:37:02;;;;;;;6.13;5.63;;;16.80;99.90;;;;;;5999422;23;20452;-81
2022/04/27 09:39:30;;;;;;;6.07;5.57;;;16.60;99.90;;;;;;5994568;23;20452;-81
2022/04/27 09:42:04;;;;;;;5.97;5.47;;;16.40;99.90;;;;;;5997172;23;20518;-81
2022/04/27 09:44:34;;;;;;;5.97;5.50;;;16.50;99.90;;;;;;5995335;23;20437;-81
2022/04/27 09:47:03;;;;;;;6.17;5.57;;;16.30;99.90;;;;;;5995728;23;20452;-82
2022/04/27 09:49:31;;;;;;;5.57;5.17;;;16.30;99.90;;;;;;5995142;23;20469;-83
2022/04/27 09:52:00;;;;;;;6.07;5.60;;;16.60;99.90;;;;;;5997390;23;20451;-82
2022/04/27 09:54:29;;;;;;;5.90;5.40;;;16.50;99.90;;;;;;5997503;23;20469;-82
2022/04/27 09:56:57;;;;;;;5.80;5.40;;;17.00;99.90;;;;;;5994504;23;20504;-81
2022/04/27 09:59:27;;;;;;;5.57;5.17;;;17.20;99.90;;;;;;5998893;23;20461;-81
2022/04/27 10:01:58;;;;;;;5.30;4.90;;;17.30;99.90;;;;;;5998268;23;20520;-81
2022/04/27 10:04:29;;;;;;;5.07;4.67;;;17.70;99.90;;;;;;6000083;23;20535;-82
2022/04/27 10:06:58;;;;;;;4.40;4.07;;;18.30;99.90;;;;;;6000674;23;20445;-82
2022/04/27 10:09:27;;;;;;;4.67;4.27;;;18.60;99.90;;;;;;6000344;23;20461;-81
2022/04/27 10:11:55;;;;;;;4.60;4.30;;;18.90;99.90;;;;;;5997470;23;20449;-81
2022/04/27 10:14:23;;;;;;;4.77;4.37;;;19.30;99.90;;;;;;5995289;23;20437;-81
2022/04/27 10:16:51;;;;;;;5.07;4.67;;;20.00;99.90;;;;;;5999352;23;20440;-82
2022/04/27 10:19:19;;;;;;;5.00;4.63;;;20.00;99.90;;;;;;5998956;23;20468;-82
2022/04/27 10:21:57;;;;;;;5.53;5.13;;;19.40;99.90;;;;;;6000118;23;20442;-81
2022/04/27 10:24:58;;;;;;;4.70;4.37;;;18.30;99.90;;;;;;5994420;23;20441;-75
2022/04/27 10:27:26;;;;;;;5.17;4.67;;;17.40;99.90;;;;;;5875722;24;20466;-81
2022/04/27 10:29:59;;;;;;;5.60;5.13;;;16.90;99.90;;;;;;5875617;24;20479;-81
2022/04/27 10:32:36;;;;;;;5.90;5.47;;;16.40;99.90;;;;;;5936989;23;20452;-81
2022/04/27 10:35:18;;;;;;;4.97;4.57;;;15.90;99.90;;;;;;5997333;23;20439;-81
2022/04/27 10:37:47;;;;;;;5.90;5.40;;;15.80;99.90;;;;;;5998785;23;21342;-81
2022/04/27 10:40:36;;;;;;;5.60;5.20;;;15.60;99.90;;;;;;5997599;23;20460;-81
2022/04/27 10:43:13;;;;;;;5.90;5.43;;;15.30;99.90;;;;;;5998791;23;20443;-81
2022/04/27 10:45:42;;;;;;;5.53;5.13;;;15.30;99.90;;;;;;5985061;23;20446;-81
2022/04/27 10:48:16;;;;;;;5.93;5.53;;;15.50;99.90;;;;;;5999506;23;20935;-81
2022/04/27 10:50:57;;;;;;;7.00;6.50;;;15.50;99.90;;;;;;5997269;23;20468;-81
2022/04/27 10:53:25;;;;;;;5.53;5.13;;;15.60;99.90;;;;;;5985725;23;20454;-81
2022/04/27 10:55:54;;;;;;;5.83;5.33;;;15.60;99.90;;;;;;5986494;23;21191;-81
2022/04/27 10:58:36;;;;;;;6.27;5.80;;;15.80;99.90;;;;;;5998945;23;20456;-81
2022/04/27 11:01:25;;;;;;;6.23;5.83;;;15.90;99.90;;;;;;5996726;23;20444;-80
2022/04/27 11:04:00;;;;;;;6.40;5.90;;;15.80;99.90;;;;;;5997914;23;20446;-81
2022/04/27 11:06:44;;;;;;;5.80;5.40;;;15.60;99.90;;;;;;5998334;23;20481;-81
2022/04/27 11:09:17;;;;;;;5.70;5.30;;;15.40;99.90;;;;;;5994738;23;21002;-81
2022/04/27 11:11:52;;;;;;;6.40;5.50;;;15.70;99.90;;;;;;5993256;23;20975;-81
2022/04/27 11:14:21;;;;;;;5.17;4.77;;;16.70;99.90;;;;;;5996307;23;20476;-81
2022/04/27 11:16:49;;;;;;;5.60;5.20;;;17.80;99.90;;;;;;6000373;23;20433;-81
2022/04/27 11:19:17;;;;;;;5.73;5.13;;;18.90;99.90;;;;;;5998376;23;20548;-81
2022/04/27 11:21:46;;;;;;;5.57;5.07;;;19.70;99.90;;;;;;5998233;23;20476;-81
2022/04/27 11:24:15;;;;;;;5.70;5.30;;;19.70;99.90;;;;;;5991316;23;20433;-81
2022/04/27 11:26:43;;;;;;;6.27;5.87;;;19.60;99.90;;;;;;5998687;23;20441;-81
2022/04/27 11:29:12;;;;;;;6.00;5.50;;;19.20;99.90;;;;;;5997617;23;20531;-81
2022/04/27 11:31:40;;;;;;;6.70;6.20;;;18.70;99.90;;;;;;5996716;23;20477;-81
2022/04/27 11:34:24;;;;;;;6.90;6.37;;;18.10;99.90;;;;;;5999591;23;20449;-81
2022/04/27 11:36:53;;;;;;;5.50;5.10;;;17.70;99.90;;;;;;5993168;23;20445;-81
2022/04/27 11:39:21;;;;;;;5.37;4.97;;;17.70;99.90;;;;;;5990757;23;20461;-81
2022/04/27 11:41:57;;;;;;;5.30;4.90;;;18.30;99.90;;;;;;5996811;23;20521;-81
2022/04/27 11:44:25;;;;;;;5.43;5.03;;;19.00;99.90;;;;;;6001494;23;20487;-82
2022/04/27 11:46:52;;;;;;;5.37;4.97;;;19.60;99.90;;;;;;5997760;23;20441;-83
2022/04/27 11:49:19;;;;;;;5.53;5.13;;;20.50;99.60;;;;;;6001242;23;20484;-83
2022/04/27 11:51:47;;;;;;;5.10;4.70;;;20.90;98.00;;;;;;5996948;23;20481;-83
2022/04/27 11:54:27;;;;;;;4.80;4.50;;;21.60;97.70;;;;;;5998846;23;20853;-83
2022/04/27 11:57:00;;;;;;;5.57;5.17;;;21.90;94.80;;;;;;5997852;23;20445;-82
2022/04/27 11:59:42;;;;;;;4.90;4.60;;;21.90;95.30;;;;;;5996422;23;20457;-82
2022/04/27 12:02:10;;;;;;;5.10;4.77;;;21.80;94.10;;;;;;6001204;23;20524;-82
2022/04/27 12:04:37;;;;;;;5.20;4.83;;;21.40;93.50;;;;;;6002318;23;20515;-83
2022/04/27 12:07:12;;;;;;;4.80;4.50;;;21.00;94.30;;;;;;6003542;23;20476;-82
2022/04/27 12:09:41;;;;;;;5.03;4.73;;;20.90;94.40;;;;;;5998169;23;21207;-82
2022/04/27 12:12:11;;;;;;;5.83;5.43;;;20.40;95.80;;;;;;6001024;23;20522;-82
2022/04/27 12:14:38;;;;;;;11.63;6.27;;;19.70;95.50;;;;;;6000981;23;20446;-82
2022/04/27 12:17:06;;;;;;;6.13;5.73;;;19.50;96.10;;;;;;5995981;23;20475;-82
2022/04/27 12:19:34;;;;;;;5.03;4.63;;;19.20;95.60;;;;;;5986727;23;20460;-82
2022/04/27 12:22:13;;;;;;;5.70;5.30;;;18.60;96.90;;;;;;6000211;23;20443;-81
2022/04/27 12:24:45;;;;;;;5.83;5.43;;;18.40;97.50;;;;;;6001511;23;20512;-82
2022/04/27 12:27:19;;;;;;;5.07;4.67;;;18.30;97.40;;;;;;5997395;23;20508;-81
2022/04/27 12:29:46;;;;;;;5.43;5.03;;;18.40;97.30;;;;;;5999347;23;20464;-82
2022/04/27 12:32:13;;;;;;;5.43;5.03;;;18.70;97.50;;;;;;6001791;23;21031;-82
2022/04/27 12:37:32;;;;;;;5.33;4.93;;;19.70;96.60;;;;;;6003167;23;20444;-82
2022/04/27 12:40:14;;;;;;;5.33;4.93;;;20.20;96.20;;;;;;5993262;23;20539;-82
2022/04/27 12:43:00;;;;;;;5.10;4.70;;;21.00;95.80;;;;;;6002436;23;20491;-82
2022/04/27 12:45:27;;;;;;;5.33;4.93;;;21.60;94.30;;;;;;6002022;23;20468;-82
2022/04/27 12:47:54;;;;;;;5.20;4.90;;;21.70;93.90;;;;;;6001459;23;20518;-82
2022/04/27 12:50:21;;;;;;;4.70;4.40;;;21.30;91.60;;;;;;5996276;23;20467;-82
2022/04/27 12:52:49;;;;;;;5.13;4.83;;;20.70;92.40;;;;;;5998004;23;20445;-82
2022/04/27 12:55:20;;;;;;;5.00;4.60;;;20.50;93.00;;;;;;6003142;23;20844;-82
2022/04/27 12:57:48;;;;;;;5.73;5.33;;;20.60;93.30;;;;;;5997508;23;20516;-82
2022/04/27 13:00:17;;;;;;;5.20;4.80;;;20.50;93.00;;;;;;5995109;23;20528;-82
2022/04/27 13:02:44;;;;;;;5.10;4.80;;;20.70;92.60;;;;;;5997900;23;20503;-82